Terminal Aerodrome Forecast
Issued by NWS

Home | Current Version | Previous Version | Text Only | Print | Product List | Glossary On
Versions: 1 2 3 4 5 6 7 8 9 10 11 12 13 14 15 16 17 18 19 20 21 22
000
FTUS42 KTAE 031400 AAB
TAFDHN
TAF AMD
KDHN 031418Z 0314/0412 13004KT P6SM FEW006 BKN012
     FM031500 15007KT P6SM BKN015
     FM031700 18010KT P6SM SCT025 BKN050
     FM040000 17004KT P6SM BKN250
     FM040600 17004KT 1/2SM FG OVC001=

USA.gov is the U.S. government's official web portal to all federal, state and local government web resources and services.